createdAt,value
2022-09-07T00:00:52.560Z,98719.75
2022-09-07T00:03:20.243Z,98756.97
2022-09-07T00:05:51.032Z,98749.38
2022-09-07T00:08:21.524Z,98733.88
2022-09-07T00:10:57.715Z,98749.38
2022-09-07T00:13:27.381Z,98722.66
2022-09-07T00:15:54.339Z,98712.41
2022-09-07T00:18:21.264Z,98711.03
2022-09-07T00:20:58.018Z,98729.44
2022-09-07T00:23:24.908Z,98709.94
2022-09-07T00:25:54.173Z,98691.66
2022-09-07T00:28:21.180Z,98694.44
2022-09-07T00:30:48.231Z,98699.00
2022-09-07T00:33:15.051Z,98689.75
2022-09-07T00:35:42.911Z,98677.69
2022-09-07T00:38:10.103Z,98690.72
2022-09-07T00:40:37.086Z,98697.47
2022-09-07T00:43:05.888Z,98673.00
2022-09-07T00:45:32.746Z,98680.72
2022-09-07T00:48:05.970Z,98679.34
2022-09-07T00:50:42.363Z,98659.28
2022-09-07T00:53:21.995Z,98648.91
2022-09-07T00:55:51.388Z,98669.53
2022-09-07T00:58:22.011Z,98658.31
2022-09-07T01:00:50.508Z,98646.44
2022-09-07T01:03:24.635Z,98662.06
2022-09-07T01:06:18.236Z,98657.75
2022-09-07T01:08:49.813Z,98636.84
2022-09-07T01:11:19.980Z,98635.22
2022-09-07T01:13:49.093Z,98618.75
2022-09-07T01:16:56.118Z,98649.75
2022-09-07T01:19:49.293Z,98663.56
2022-09-07T01:23:11.715Z,98628.13
2022-09-07T01:26:09.425Z,98648.34
2022-09-07T01:28:37.234Z,98638.00
2022-09-07T01:32:01.584Z,98620.81
2022-09-07T01:34:29.116Z,98642.81
2022-09-07T01:37:55.065Z,98660.22
2022-09-07T01:40:47.231Z,98667.97
2022-09-07T01:43:34.389Z,98683.63
2022-09-07T01:46:07.874Z,98652.31
2022-09-07T01:48:39.484Z,98667.97
2022-09-07T01:51:11.963Z,98682.34
2022-09-07T01:53:51.578Z,98675.84
2022-09-07T01:56:33.866Z,98686.22
2022-09-07T01:59:27.936Z,98681.78
2022-09-07T02:02:26.220Z,98667.69
2022-09-07T02:05:20.874Z,98663.41
2022-09-07T02:08:07.657Z,98682.97
2022-09-07T02:10:40.952Z,98670.19
2022-09-07T02:13:29.189Z,98693.47
2022-09-07T02:16:03.356Z,98697.31
2022-09-07T02:18:38.321Z,98658.44
2022-09-07T02:21:08.110Z,98692.28
2022-09-07T02:23:46.515Z,98692.31
2022-09-07T02:26:21.786Z,98689.53
2022-09-07T02:28:48.860Z,98686.50
2022-09-07T02:31:16.369Z,98692.16
2022-09-07T02:33:43.424Z,98682.34
2022-09-07T02:36:13.920Z,98674.84
2022-09-07T02:38:41.235Z,98715.13
2022-09-07T02:41:35.688Z,98710.31
2022-09-07T02:44:07.633Z,98710.03
2022-09-07T02:46:52.093Z,98722.47
2022-09-07T02:50:04.362Z,98717.34
2022-09-07T02:53:15.363Z,98721.63
2022-09-07T02:55:57.110Z,98711.94
2022-09-07T02:58:51.568Z,98702.84
2022-09-07T03:01:49.866Z,98700.03
2022-09-07T03:04:51.368Z,98711.94
2022-09-07T03:07:24.737Z,98717.19
2022-09-07T03:09:55.057Z,98737.78
2022-09-07T03:12:22.063Z,98747.63
2022-09-07T03:14:49.088Z,98713.41
2022-09-07T03:17:16.093Z,98747.75
2022-09-07T03:19:42.940Z,98732.13
2022-09-07T03:22:09.854Z,98663.16
2022-09-07T03:24:37.020Z,98740.44
2022-09-07T03:27:03.977Z,98719.78
2022-09-07T03:29:30.935Z,98719.22
2022-09-07T03:31:57.792Z,98738.88
2022-09-07T03:34:24.649Z,98705.53
2022-09-07T03:36:51.537Z,98741.78
2022-09-07T03:39:20.947Z,98753.84
2022-09-07T03:41:47.991Z,98723.34
2022-09-07T03:44:14.913Z,98742.06
2022-09-07T03:46:41.878Z,98734.28
2022-09-07T03:49:08.757Z,98749.25
2022-09-07T03:51:35.586Z,98706.38
2022-09-07T03:54:02.461Z,98735.97
2022-09-07T03:56:29.354Z,98736.97
2022-09-07T03:58:56.372Z,98737.47
2022-09-07T04:01:26.524Z,98742.50
2022-09-07T04:04:01.367Z,98749.66
2022-09-07T04:06:30.315Z,98754.38
2022-09-07T04:08:57.253Z,98754.38
2022-09-07T04:11:24.152Z,98747.97
2022-09-07T04:13:50.986Z,98725.41
2022-09-07T04:16:26.547Z,98743.00
2022-09-07T04:18:59.059Z,98761.13
2022-09-07T04:21:28.439Z,98764.44
2022-09-07T04:23:55.357Z,98770.84
2022-09-07T04:26:28.762Z,98765.84
2022-09-07T04:28:56.041Z,98751.72
2022-09-07T04:31:24.109Z,98754.78
2022-09-07T04:33:52.384Z,98760.31
2022-09-07T04:36:20.964Z,98734.44
2022-09-07T04:39:03.597Z,98765.84
2022-09-07T04:41:32.460Z,98757.81
2022-09-07T04:44:02.263Z,98719.00
2022-09-07T04:46:33.787Z,98760.19
2022-09-07T04:49:08.474Z,98742.84
2022-09-07T04:51:36.219Z,98746.97
2022-09-07T04:54:04.086Z,98761.41
2022-09-07T04:56:32.228Z,98737.53
2022-09-07T04:59:01.257Z,98761.94
2022-09-07T05:01:29.080Z,98765.28
2022-09-07T05:03:56.092Z,98761.75
2022-09-07T05:06:23.548Z,98774.66
2022-09-07T05:08:53.658Z,98772.69
2022-09-07T05:11:28.454Z,98773.09
2022-09-07T05:14:02.132Z,98758.03
2022-09-07T05:16:29.978Z,98769.38
2022-09-07T05:19:02.305Z,98772.41
2022-09-07T05:21:34.391Z,98768.56
2022-09-07T05:24:02.625Z,98753.78
2022-09-07T05:26:33.948Z,98715.13
2022-09-07T05:31:49.909Z,98753.34
2022-09-07T05:34:32.867Z,98751.25
2022-09-07T05:37:01.052Z,98746.53
2022-09-07T05:39:29.031Z,98735.75
2022-09-07T05:41:56.812Z,98759.13
2022-09-07T05:47:11.331Z,98753.28
2022-09-07T05:49:38.256Z,98751.53
2022-09-07T05:52:05.120Z,98755.81
2022-09-07T05:54:31.957Z,98744.63
2022-09-07T05:56:59.200Z,98772.75
2022-09-07T05:59:26.099Z,98771.63
2022-09-07T06:01:53.003Z,98781.19
2022-09-07T06:04:19.946Z,98745.31
2022-09-07T06:07:04.636Z,98754.56
2022-09-07T06:09:33.894Z,98759.44
2022-09-07T06:12:00.713Z,98784.66
2022-09-07T06:14:27.550Z,98738.94
2022-09-07T06:16:54.407Z,98772.75
2022-09-07T06:19:21.405Z,98758.88
2022-09-07T06:25:50.266Z,98773.31
2022-09-07T06:28:17.168Z,98771.06
2022-09-07T06:30:44.109Z,98758.06
2022-09-07T06:33:10.962Z,98777.34
2022-09-07T06:35:37.897Z,98759.63
2022-09-07T06:38:04.691Z,98761.72
2022-09-07T06:40:34.394Z,98733.91
2022-09-07T06:43:01.214Z,98754.56
2022-09-07T06:45:28.147Z,98744.03
2022-09-07T06:47:55.008Z,98779.38
2022-09-07T06:50:23.075Z,98770.25
2022-09-07T06:55:46.011Z,98759.19
2022-09-07T06:58:12.862Z,98769.84
2022-09-07T07:00:39.733Z,98764.31
2022-09-07T07:03:06.674Z,98743.16
2022-09-07T07:05:33.742Z,98783.97
2022-09-07T07:08:00.610Z,98751.59
2022-09-07T07:10:27.597Z,98783.16
2022-09-07T07:12:58.479Z,98770.84
2022-09-07T07:15:27.935Z,98765.97
2022-09-07T07:18:00.315Z,98768.47
2022-09-07T07:20:32.272Z,98766.94
2022-09-07T07:22:59.119Z,98782.72
2022-09-07T07:25:26.040Z,98780.09
2022-09-07T07:27:53.144Z,98772.34
2022-09-07T07:30:20.842Z,98769.72
2022-09-07T07:32:48.193Z,98780.91
2022-09-07T07:35:15.199Z,98798.94
2022-09-07T07:37:42.021Z,98765.69
2022-09-07T07:40:15.412Z,98794.38
2022-09-07T07:42:43.629Z,98777.16
2022-09-07T07:47:58.643Z,98800.28
2022-09-07T07:50:33.358Z,98740.91
2022-09-07T07:55:47.812Z,98781.22
2022-09-07T07:58:14.657Z,98806.00
2022-09-07T08:00:54.199Z,98805.56
2022-09-07T08:03:23.503Z,98813.31
2022-09-07T08:05:50.873Z,98815.81
2022-09-07T08:08:18.124Z,98817.16
2022-09-07T08:10:47.220Z,98798.63
2022-09-07T08:13:16.536Z,98818.41
2022-09-07T08:15:46.876Z,98797.53
2022-09-07T08:18:16.433Z,98822.13
2022-09-07T08:20:43.708Z,98801.66
2022-09-07T08:23:11.569Z,98806.34
2022-09-07T08:25:38.641Z,98810.50
2022-09-07T08:28:05.973Z,98799.97
2022-09-07T08:30:32.786Z,98791.63
2022-09-07T08:32:59.571Z,98796.59
2022-09-07T08:35:26.436Z,98788.06
2022-09-07T08:37:53.294Z,98804.47
2022-09-07T08:40:20.640Z,98795.41
2022-09-07T08:43:13.454Z,98812.09
2022-09-07T08:45:55.483Z,98815.28
2022-09-07T08:48:30.985Z,98814.72
2022-09-07T08:51:15.055Z,98789.69
2022-09-07T08:53:46.954Z,98804.94
2022-09-07T08:56:33.593Z,98821.06
2022-09-07T08:59:09.446Z,98789.84
2022-09-07T09:01:43.124Z,98801.78
2022-09-07T09:04:22.011Z,98795.06
2022-09-07T09:07:22.565Z,98796.75
2022-09-07T09:10:20.121Z,98807.25
2022-09-07T09:13:19.205Z,98798.41
2022-09-07T09:16:08.615Z,98795.22
2022-09-07T09:19:09.048Z,98791.63
2022-09-07T09:21:35.859Z,98778.25
2022-09-07T09:24:19.336Z,98785.34
2022-09-07T09:26:52.234Z,98759.59
2022-09-07T09:29:23.561Z,98772.66
2022-09-07T09:31:50.507Z,98764.50
2022-09-07T09:34:23.850Z,98779.16
2022-09-07T09:36:56.197Z,98756.38
2022-09-07T09:39:36.772Z,98751.41
2022-09-07T09:42:24.565Z,98755.09
2022-09-07T09:44:51.825Z,98763.09
2022-09-07T09:47:39.267Z,98747.53
2022-09-07T09:53:07.011Z,98735.59
2022-09-07T09:55:37.227Z,98764.41
2022-09-07T10:01:28.010Z,98764.38
2022-09-07T10:03:55.793Z,98735.06
2022-09-07T10:06:23.666Z,98745.41
2022-09-07T10:08:59.330Z,98717.47
2022-09-07T10:14:45.240Z,98718.47
2022-09-07T10:17:42.782Z,98737.06
2022-09-07T10:20:21.393Z,98741.41
2022-09-07T10:22:54.319Z,98737.66
2022-09-07T10:25:41.049Z,98741.88
2022-09-07T10:28:14.023Z,98729.94
2022-09-07T10:31:15.119Z,98716.66
2022-09-07T10:34:30.745Z,98708.97
2022-09-07T10:37:35.560Z,98702.06
2022-09-07T10:40:21.806Z,98702.94
2022-09-07T10:43:30.653Z,98694.31
2022-09-07T10:49:39.437Z,98679.22
2022-09-07T10:52:08.942Z,98696.41
2022-09-07T10:54:59.278Z,98693.22
2022-09-07T10:58:03.248Z,98702.91
2022-09-07T11:00:43.042Z,98680.91
2022-09-07T11:03:40.629Z,98674.56
2022-09-07T11:06:25.088Z,98655.41
2022-09-07T11:09:22.981Z,98645.53
2022-09-07T11:12:18.635Z,98667.44
2022-09-07T11:14:53.557Z,98636.81
2022-09-07T11:17:27.003Z,98659.72
2022-09-07T11:20:21.787Z,98624.34
2022-09-07T11:23:07.039Z,98665.31
2022-09-07T11:26:50.770Z,98651.41
2022-09-07T11:29:36.014Z,98656.72
2022-09-07T11:32:21.938Z,98645.44
2022-09-07T11:35:35.251Z,98657.59
2022-09-07T11:38:25.378Z,98664.75
2022-09-07T11:41:22.717Z,98669.53
2022-09-07T11:44:18.819Z,98663.47
2022-09-07T11:46:48.972Z,98661.34
2022-09-07T11:49:25.950Z,98656.47
2022-09-07T11:52:05.391Z,98659.31
2022-09-07T11:54:48.870Z,98652.59
2022-09-07T11:57:15.690Z,98664.84
2022-09-07T12:00:10.883Z,98643.69
2022-09-07T12:03:27.948Z,98648.50
2022-09-07T12:06:32.933Z,98653.31
2022-09-07T12:09:39.083Z,98642.34
2022-09-07T12:12:35.071Z,98629.34
2022-09-07T12:15:28.747Z,98639.25
2022-09-07T12:18:05.019Z,98631.47
2022-09-07T12:20:44.870Z,98641.19
2022-09-07T12:23:17.644Z,98619.22
2022-09-07T12:25:47.502Z,98590.66
2022-09-07T12:28:38.261Z,98606.66
2022-09-07T12:31:11.707Z,98604.13
2022-09-07T12:33:41.679Z,98606.81
2022-09-07T12:36:26.739Z,98621.22
2022-09-07T12:39:28.662Z,98612.56
2022-09-07T12:45:28.022Z,98610.16
2022-09-07T12:48:04.452Z,98587.03
2022-09-07T12:51:00.509Z,98596.34
2022-09-07T12:53:34.419Z,98604.03
2022-09-07T12:56:43.184Z,98600.47
2022-09-07T13:00:03.838Z,98602.66
2022-09-07T13:03:49.437Z,98602.47
2022-09-07T13:06:06.758Z,98600.28
2022-09-07T13:08:48.510Z,98595.81
2022-09-07T13:11:21.177Z,98598.78
2022-09-07T13:14:23.272Z,98595.22
2022-09-07T13:17:33.040Z,98590.63
2022-09-07T13:19:59.819Z,98600.66
2022-09-07T13:22:33.360Z,98588.63
2022-09-07T13:25:19.768Z,98586.16
2022-09-07T13:27:58.405Z,98568.66
2022-09-07T13:30:44.267Z,98573.88
2022-09-07T13:33:29.860Z,98571.50
2022-09-07T13:36:05.611Z,98560.75
2022-09-07T13:38:36.500Z,98544.78
2022-09-07T13:41:16.567Z,98549.13
2022-09-07T13:43:58.558Z,98550.41
2022-09-07T13:46:37.139Z,98542.28
2022-09-07T13:49:36.909Z,98550.78
2022-09-07T13:52:50.625Z,98544.09
2022-09-07T13:55:38.755Z,98542.59
2022-09-07T13:58:28.892Z,98540.78
2022-09-07T14:01:03.483Z,98537.72
2022-09-07T14:03:59.827Z,98529.88
2022-09-07T14:06:31.371Z,98534.81
2022-09-07T14:09:01.391Z,98526.19
2022-09-07T14:11:51.312Z,98523.28
2022-09-07T14:14:31.012Z,98519.00
2022-09-07T14:17:00.941Z,98520.38
2022-09-07T14:19:49.363Z,98490.72
2022-09-07T14:22:27.224Z,98509.81
2022-09-07T14:24:56.878Z,98502.16
2022-09-07T14:27:36.492Z,98517.97
2022-09-07T14:30:28.787Z,98514.81
2022-09-07T14:33:04.900Z,98507.09
2022-09-07T14:35:38.447Z,98505.00
2022-09-07T14:38:14.239Z,98508.09
2022-09-07T14:40:41.821Z,98510.94
2022-09-07T14:43:38.529Z,98496.94
2022-09-07T14:46:24.519Z,98502.25
2022-09-07T14:48:58.126Z,98492.44
2022-09-07T14:51:36.212Z,98503.41
2022-09-07T14:54:07.027Z,98505.50
2022-09-07T14:56:41.747Z,98495.41
2022-09-07T14:59:43.322Z,98488.09
2022-09-07T15:02:19.522Z,98487.34
2022-09-07T15:04:48.237Z,98482.75
2022-09-07T15:07:38.943Z,98484.03
2022-09-07T15:10:20.962Z,98485.66
2022-09-07T15:12:53.798Z,98484.44
2022-09-07T15:15:26.319Z,98472.31
2022-09-07T15:18:00.846Z,98468.78
2022-09-07T15:20:45.057Z,98471.25
2022-09-07T15:23:19.574Z,98493.84
2022-09-07T15:25:53.646Z,98485.16
2022-09-07T15:34:18.775Z,98484.66
2022-09-07T15:36:51.155Z,98483.56
2022-09-07T15:39:22.089Z,98483.47
2022-09-07T15:41:49.087Z,98461.13
2022-09-07T15:44:18.633Z,98477.25
2022-09-07T15:49:35.342Z,98464.81
2022-09-07T15:52:06.187Z,98458.84
2022-09-07T15:54:35.257Z,98481.19
2022-09-07T15:59:50.677Z,98493.13
2022-09-07T16:05:05.929Z,98461.59
2022-09-07T16:10:20.557Z,98441.03
2022-09-07T16:13:10.093Z,98444.41
2022-09-07T16:15:34.675Z,98444.69
2022-09-07T16:18:02.446Z,98447.34
2022-09-07T16:20:31.918Z,98417.91
2022-09-07T16:23:15.995Z,98440.69
2022-09-07T16:25:57.079Z,98418.16
2022-09-07T16:28:24.161Z,98420.78
2022-09-07T16:30:51.085Z,98425.00
2022-09-07T16:33:17.864Z,98427.50
2022-09-07T16:35:56.316Z,98427.94
2022-09-07T16:41:15.343Z,98432.00
2022-09-07T16:43:42.792Z,98432.38
2022-09-07T16:46:14.811Z,98418.34
2022-09-07T16:48:43.770Z,98440.06
2022-09-07T16:51:13.622Z,98437.84
2022-09-07T16:53:40.622Z,98441.44
2022-09-07T16:56:17.202Z,98452.44
2022-09-07T16:58:51.064Z,98451.75
2022-09-07T17:01:21.864Z,98448.56
2022-09-07T17:03:49.866Z,98453.03
2022-09-07T17:06:18.948Z,98459.56
2022-09-07T17:08:45.850Z,98459.94
2022-09-07T17:11:22.634Z,98447.50
2022-09-07T17:13:49.995Z,98456.41
2022-09-07T17:16:38.622Z,98453.81
2022-09-07T17:21:55.514Z,98448.53
2022-09-07T17:24:24.210Z,98439.72
2022-09-07T17:26:51.087Z,98430.03
2022-09-07T17:29:18.095Z,98438.53
2022-09-07T17:34:31.930Z,98429.56
2022-09-07T17:37:00.573Z,98449.97
2022-09-07T17:39:27.769Z,98430.69
2022-09-07T17:41:55.022Z,98442.97
2022-09-07T17:44:23.423Z,98468.75
2022-09-07T17:46:51.029Z,98470.28
2022-09-07T17:49:18.099Z,98481.09
2022-09-07T17:51:45.880Z,98486.09
2022-09-07T17:54:15.893Z,98495.91
2022-09-07T17:56:44.034Z,98491.66
2022-09-07T18:01:58.825Z,98470.63
2022-09-07T18:04:26.194Z,98435.31
2022-09-07T18:06:54.388Z,98450.19
2022-09-07T18:09:21.737Z,98463.81
2022-09-07T18:11:49.576Z,98475.75
2022-09-07T18:14:18.052Z,98498.75
2022-09-07T18:16:46.886Z,98480.00
2022-09-07T18:19:14.429Z,98479.38
2022-09-07T18:21:43.230Z,98488.19
2022-09-07T18:24:23.175Z,98503.09
2022-09-07T18:26:52.799Z,98510.28
2022-09-07T18:29:32.213Z,98500.69
2022-09-07T18:32:02.978Z,98505.16
2022-09-07T18:34:31.956Z,98500.94
2022-09-07T18:36:59.915Z,98499.44
2022-09-07T18:39:27.295Z,98489.56
2022-09-07T18:41:55.075Z,98473.72
2022-09-07T18:47:08.950Z,98474.53
2022-09-07T18:49:35.820Z,98467.97
2022-09-07T18:54:50.497Z,98516.50
2022-09-07T18:57:17.501Z,98493.03
2022-09-07T18:59:44.553Z,98489.22
2022-09-07T19:02:11.521Z,98523.25
2022-09-07T19:07:29.598Z,98519.63
2022-09-07T19:09:56.944Z,98517.63
2022-09-07T19:12:24.141Z,98507.41
2022-09-07T19:14:51.148Z,98517.63
2022-09-07T19:17:18.030Z,98527.56
2022-09-07T19:19:45.015Z,98514.47
2022-09-07T19:22:11.891Z,98517.91
2022-09-07T19:24:38.721Z,98527.34
2022-09-07T19:27:07.142Z,98526.19
2022-09-07T19:29:34.476Z,98541.41
2022-09-07T19:32:04.538Z,98525.03
2022-09-07T19:34:35.432Z,98540.88
2022-09-07T19:37:02.700Z,98535.69
2022-09-07T19:39:29.534Z,98529.28
2022-09-07T19:41:56.511Z,98553.25
2022-09-07T19:44:23.294Z,98531.38
2022-09-07T19:46:50.788Z,98554.84
2022-09-07T19:49:18.155Z,98535.66
2022-09-07T19:51:45.080Z,98542.94
2022-09-07T19:54:13.529Z,98522.91
2022-09-07T19:56:42.723Z,98533.50
2022-09-07T19:59:09.990Z,98534.66
2022-09-07T20:01:38.557Z,98498.97
2022-09-07T20:04:10.601Z,98524.94
2022-09-07T20:06:39.521Z,98528.72
2022-09-07T20:09:08.131Z,98490.38
2022-09-07T20:11:35.996Z,98489.69
2022-09-07T20:14:03.595Z,98481.09
2022-09-07T20:16:31.346Z,98485.72
2022-09-07T20:19:00.577Z,98503.25
2022-09-07T20:21:27.564Z,98485.06
2022-09-07T20:23:54.428Z,98485.38
2022-09-07T20:26:22.526Z,98481.25
2022-09-07T20:29:16.337Z,98464.38
2022-09-07T20:31:44.286Z,98484.66
2022-09-07T20:34:15.096Z,98454.41
2022-09-07T20:36:42.519Z,98460.16
2022-09-07T20:39:15.695Z,98462.31
2022-09-07T20:41:42.559Z,98451.91
2022-09-07T20:44:09.660Z,98446.28
2022-09-07T20:46:36.677Z,98434.34
2022-09-07T20:49:04.852Z,98455.81
2022-09-07T20:51:32.134Z,98427.72
2022-09-07T20:53:59.152Z,98451.19
2022-09-07T20:56:28.494Z,98453.03
2022-09-07T20:59:00.728Z,98443.63
2022-09-07T21:01:29.843Z,98441.00
2022-09-07T21:03:58.429Z,98444.75
2022-09-07T21:06:26.589Z,98449.53
2022-09-07T21:08:54.495Z,98449.97
2022-09-07T21:11:24.826Z,98456.13
2022-09-07T21:14:00.675Z,98426.66
2022-09-07T21:16:28.388Z,98450.78
2022-09-07T21:18:58.877Z,98459.84
2022-09-07T21:21:27.278Z,98462.94
2022-09-07T21:24:00.122Z,98447.38
2022-09-07T21:26:28.523Z,98441.75
2022-09-07T21:29:01.357Z,98461.59
2022-09-07T21:31:32.279Z,98479.41
2022-09-07T21:34:01.553Z,98474.41
2022-09-07T21:36:28.954Z,98490.75
2022-09-07T21:38:56.171Z,98488.84
2022-09-07T21:41:25.222Z,98498.84
2022-09-07T21:44:03.055Z,98498.06
2022-09-07T21:46:32.155Z,98497.09
2022-09-07T21:48:59.934Z,98493.78
2022-09-07T21:51:27.247Z,98470.53
2022-09-07T21:53:56.680Z,98477.81
2022-09-07T21:56:23.695Z,98447.91
2022-09-07T21:58:55.442Z,98477.97
2022-09-07T22:01:24.237Z,98469.72
2022-09-07T22:04:06.939Z,98445.03
2022-09-07T22:06:34.770Z,98445.53
2022-09-07T22:09:04.016Z,98452.84
2022-09-07T22:11:31.420Z,98465.28
2022-09-07T22:14:02.562Z,98479.50
2022-09-07T22:16:30.966Z,98475.13
2022-09-07T22:18:57.801Z,98478.66
2022-09-07T22:21:28.146Z,98471.06
2022-09-07T22:24:04.504Z,98446.16
2022-09-07T22:26:37.585Z,98450.22
2022-09-07T22:29:06.573Z,98445.41
2022-09-07T22:31:36.560Z,98436.22
2022-09-07T22:34:08.116Z,98437.72
2022-09-07T22:36:44.219Z,98418.75
2022-09-07T22:39:18.773Z,98410.31
2022-09-07T22:41:47.198Z,98385.53
2022-09-07T22:44:18.536Z,98387.94
2022-09-07T22:46:47.463Z,98382.88
2022-09-07T22:49:16.174Z,98377.44
2022-09-07T22:51:43.821Z,98375.28
2022-09-07T22:54:10.987Z,98380.56
2022-09-07T22:56:38.961Z,98362.56
2022-09-07T22:59:07.999Z,98369.50
2022-09-07T23:01:36.134Z,98339.88
2022-09-07T23:04:03.813Z,98373.19
2022-09-07T23:06:38.022Z,98374.69
2022-09-07T23:09:09.031Z,98373.00
2022-09-07T23:11:36.476Z,98405.16
2022-09-07T23:14:07.124Z,98392.84
2022-09-07T23:16:34.216Z,98397.97
2022-09-07T23:19:01.476Z,98377.13
2022-09-07T23:21:28.995Z,98369.53
2022-09-07T23:23:59.665Z,98389.69
2022-09-07T23:26:29.953Z,98369.91
2022-09-07T23:29:02.645Z,98372.09
2022-09-07T23:31:32.792Z,98374.41
2022-09-07T23:34:01.630Z,98350.94
2022-09-07T23:36:29.623Z,98372.00
2022-09-07T23:38:58.823Z,98365.69
2022-09-07T23:41:26.685Z,98361.78
2022-09-07T23:43:54.668Z,98362.91
2022-09-07T23:46:21.863Z,98362.09
2022-09-07T23:48:49.178Z,98350.28
2022-09-07T23:51:21.348Z,98357.56
2022-09-07T23:53:51.034Z,98358.03
2022-09-07T23:56:17.897Z,98367.06
2022-09-07T23:58:44.984Z,98357.53
